sensor_id;sensor_type;location;lat;lon;timestamp;pressure;altitude;pressure_sealevel;temperature;humidity
26083;BME280;13848;49.018;12.078;2023-05-20T00:02:09;97815.03;;;14.24;69.61
26083;BME280;13848;49.018;12.078;2023-05-20T00:04:34;97824.13;;;14.18;69.96
26083;BME280;13848;49.018;12.078;2023-05-20T00:07:00;97812.09;;;14.14;69.98
26083;BME280;13848;49.018;12.078;2023-05-20T00:09:26;97810.41;;;14.24;69.49
26083;BME280;13848;49.018;12.078;2023-05-20T00:11:52;97804.31;;;14.17;69.74
26083;BME280;13848;49.018;12.078;2023-05-20T00:14:19;97808.91;;;14.17;69.78
26083;BME280;13848;49.018;12.078;2023-05-20T00:16:45;97805.72;;;14.20;69.58
26083;BME280;13848;49.018;12.078;2023-05-20T00:19:11;97802.78;;;14.21;69.45
26083;BME280;13848;49.018;12.078;2023-05-20T00:21:37;97794.69;;;14.09;70.13
26083;BME280;13848;49.018;12.078;2023-05-20T00:24:03;97795.72;;;14.08;69.86
26083;BME280;13848;49.018;12.078;2023-05-20T00:26:29;97795.72;;;14.08;69.92
26083;BME280;13848;49.018;12.078;2023-05-20T00:28:55;97786.47;;;14.04;69.87
26083;BME280;13848;49.018;12.078;2023-05-20T00:31:22;97782.81;;;13.99;70.06
26083;BME280;13848;49.018;12.078;2023-05-20T00:33:48;97787.22;;;13.88;70.59
26083;BME280;13848;49.018;12.078;2023-05-20T00:36:14;97790.63;;;13.83;70.79
26083;BME280;13848;49.018;12.078;2023-05-20T00:38:40;97789.41;;;13.91;70.55
26083;BME280;13848;49.018;12.078;2023-05-20T00:41:06;97785.44;;;13.94;70.82
26083;BME280;13848;49.018;12.078;2023-05-20T00:43:32;97779.94;;;13.77;71.71
26083;BME280;13848;49.018;12.078;2023-05-20T00:45:59;97780.31;;;13.69;71.71
26083;BME280;13848;49.018;12.078;2023-05-20T00:48:28;97775.13;;;13.67;72.14
26083;BME280;13848;49.018;12.078;2023-05-20T00:50:57;97781.25;;;13.74;71.38
26083;BME280;13848;49.018;12.078;2023-05-20T00:53:23;97784.44;;;13.71;71.57
26083;BME280;13848;49.018;12.078;2023-05-20T00:55:49;97777.38;;;13.58;71.94
26083;BME280;13848;49.018;12.078;2023-05-20T00:58:15;97784.31;;;13.66;71.87
26083;BME280;13848;49.018;12.078;2023-05-20T01:00:41;97781.34;;;13.68;72.01
26083;BME280;13848;49.018;12.078;2023-05-20T01:03:07;97787.38;;;13.70;71.50
26083;BME280;13848;49.018;12.078;2023-05-20T01:05:35;97776.91;;;13.62;71.46
26083;BME280;13848;49.018;12.078;2023-05-20T01:08:01;97781.50;;;13.61;71.80
26083;BME280;13848;49.018;12.078;2023-05-20T01:10:27;97776.22;;;13.54;72.08
26083;BME280;13848;49.018;12.078;2023-05-20T01:12:57;97771.28;;;13.51;72.18
26083;BME280;13848;49.018;12.078;2023-05-20T01:15:27;97774.94;;;13.45;72.49
26083;BME280;13848;49.018;12.078;2023-05-20T01:17:57;97768.47;;;13.46;72.38
26083;BME280;13848;49.018;12.078;2023-05-20T01:20:23;97774.34;;;13.43;72.16
26083;BME280;13848;49.018;12.078;2023-05-20T01:22:54;97776.09;;;13.49;72.33
26083;BME280;13848;49.018;12.078;2023-05-20T01:25:20;97767.50;;;13.52;71.87
26083;BME280;13848;49.018;12.078;2023-05-20T01:27:46;97769.03;;;13.48;72.40
26083;BME280;13848;49.018;12.078;2023-05-20T01:30:13;97768.47;;;13.46;72.21
26083;BME280;13848;49.018;12.078;2023-05-20T01:32:42;97760.91;;;13.48;72.11
26083;BME280;13848;49.018;12.078;2023-05-20T01:35:12;97766.00;;;13.33;72.86
26083;BME280;13848;49.018;12.078;2023-05-20T01:37:40;97753.16;;;13.40;72.29
26083;BME280;13848;49.018;12.078;2023-05-20T01:40:09;97765.16;;;13.32;72.86
26083;BME280;13848;49.018;12.078;2023-05-20T01:42:36;97755.41;;;13.31;73.03
26083;BME280;13848;49.018;12.078;2023-05-20T01:45:04;97756.00;;;13.34;72.94
26083;BME280;13848;49.018;12.078;2023-05-20T01:47:30;97753.63;;;13.37;72.42
26083;BME280;13848;49.018;12.078;2023-05-20T01:49:56;97755.25;;;13.38;72.83
26083;BME280;13848;49.018;12.078;2023-05-20T01:52:22;97746.31;;;13.38;72.59
26083;BME280;13848;49.018;12.078;2023-05-20T01:54:48;97751.50;;;13.39;72.65
26083;BME280;13848;49.018;12.078;2023-05-20T01:57:16;97752.56;;;13.38;72.91
26083;BME280;13848;49.018;12.078;2023-05-20T01:59:42;97747.88;;;13.22;73.34
26083;BME280;13848;49.018;12.078;2023-05-20T02:02:07;97751.75;;;13.26;73.23
26083;BME280;13848;49.018;12.078;2023-05-20T02:04:33;97738.56;;;13.18;73.44
26083;BME280;13848;49.018;12.078;2023-05-20T02:06:59;97746.84;;;13.23;73.37
26083;BME280;13848;49.018;12.078;2023-05-20T02:09:25;97739.50;;;13.12;74.05
26083;BME280;13848;49.018;12.078;2023-05-20T02:11:51;97741.41;;;13.23;73.33
26083;BME280;13848;49.018;12.078;2023-05-20T02:14:18;97745.88;;;13.29;73.03
26083;BME280;13848;49.018;12.078;2023-05-20T02:16:45;97740.59;;;13.22;73.31
26083;BME280;13848;49.018;12.078;2023-05-20T02:19:11;97743.63;;;13.26;72.97
26083;BME280;13848;49.018;12.078;2023-05-20T02:21:37;97746.84;;;13.23;73.33
26083;BME280;13848;49.018;12.078;2023-05-20T02:24:04;97741.84;;;13.08;74.02
26083;BME280;13848;49.018;12.078;2023-05-20T02:26:30;97736.31;;;13.15;73.48
26083;BME280;13848;49.018;12.078;2023-05-20T02:28:56;97740.91;;;13.02;74.75
26083;BME280;13848;49.018;12.078;2023-05-20T02:31:23;97742.91;;;13.07;74.21
26083;BME280;13848;49.018;12.078;2023-05-20T02:33:49;97734.44;;;13.15;73.97
26083;BME280;13848;49.018;12.078;2023-05-20T02:36:15;97741.03;;;13.08;74.27
26083;BME280;13848;49.018;12.078;2023-05-20T02:38:41;97736.19;;;13.10;74.44
26083;BME280;13848;49.018;12.078;2023-05-20T02:41:07;97743.28;;;13.11;73.95
26083;BME280;13848;49.018;12.078;2023-05-20T02:43:33;97744.78;;;13.18;73.83
26083;BME280;13848;49.018;12.078;2023-05-20T02:45:59;97747.38;;;13.01;74.40
26083;BME280;13848;49.018;12.078;2023-05-20T02:48:26;97743.75;;;13.08;73.99
26083;BME280;13848;49.018;12.078;2023-05-20T02:50:52;97744.22;;;13.04;74.89
26083;BME280;13848;49.018;12.078;2023-05-20T02:53:18;97743.28;;;13.11;73.95
26083;BME280;13848;49.018;12.078;2023-05-20T02:55:45;97745.13;;;12.98;75.05
26083;BME280;13848;49.018;12.078;2023-05-20T02:58:11;97744.69;;;13.01;74.39
26083;BME280;13848;49.018;12.078;2023-05-20T03:00:37;97747.28;;;12.96;74.70
26083;BME280;13848;49.018;12.078;2023-05-20T03:03:03;97739.28;;;13.01;74.73
26083;BME280;13848;49.018;12.078;2023-05-20T03:05:30;97739.84;;;13.03;74.59
26083;BME280;13848;49.018;12.078;2023-05-20T03:07:56;97745.38;;;13.09;74.52
26083;BME280;13848;49.018;12.078;2023-05-20T03:10:22;97738.44;;;13.01;74.76
26083;BME280;13848;49.018;12.078;2023-05-20T03:12:48;97747.75;;;12.93;75.33
26083;BME280;13848;49.018;12.078;2023-05-20T03:15:14;97745.25;;;13.03;74.51
26083;BME280;13848;49.018;12.078;2023-05-20T03:17:40;97740.78;;;13.09;74.38
26083;BME280;13848;49.018;12.078;2023-05-20T03:20:07;97742.09;;;13.07;74.31
26083;BME280;13848;49.018;12.078;2023-05-20T03:22:34;97746.00;;;13.11;74.16
26083;BME280;13848;49.018;12.078;2023-05-20T03:25:00;97751.97;;;12.89;75.88
26083;BME280;13848;49.018;12.078;2023-05-20T03:27:26;97742.44;;;12.98;75.00
26083;BME280;13848;49.018;12.078;2023-05-20T03:29:52;97739.03;;;12.91;75.66
26083;BME280;13848;49.018;12.078;2023-05-20T03:32:18;97746.94;;;13.04;75.01
26083;BME280;13848;49.018;12.078;2023-05-20T03:34:43;97756.22;;;13.09;74.68
26083;BME280;13848;49.018;12.078;2023-05-20T03:37:09;97737.75;;;13.05;75.04
26083;BME280;13848;49.018;12.078;2023-05-20T03:39:37;97743.16;;;13.05;75.53
26083;BME280;13848;49.018;12.078;2023-05-20T03:42:04;97738.44;;;13.01;75.13
26083;BME280;13848;49.018;12.078;2023-05-20T03:44:30;97737.75;;;13.05;75.04
26083;BME280;13848;49.018;12.078;2023-05-20T03:46:56;97736.44;;;12.96;75.37
26083;BME280;13848;49.018;12.078;2023-05-20T03:49:22;97744.31;;;12.98;75.87
26083;BME280;13848;49.018;12.078;2023-05-20T03:51:48;97739.50;;;13.00;75.89
26083;BME280;13848;49.018;12.078;2023-05-20T03:54:13;97742.44;;;13.10;75.39
26083;BME280;13848;49.018;12.078;2023-05-20T03:56:41;97754.69;;;13.13;75.59
26083;BME280;13848;49.018;12.078;2023-05-20T03:59:07;97749.84;;;13.15;75.14
26083;BME280;13848;49.018;12.078;2023-05-20T04:01:33;97741.72;;;13.15;75.33
26083;BME280;13848;49.018;12.078;2023-05-20T04:03:58;97744.78;;;13.18;75.49
26083;BME280;13848;49.018;12.078;2023-05-20T04:06:24;97747.75;;;13.17;75.61
26083;BME280;13848;49.018;12.078;2023-05-20T04:08:50;97741.16;;;13.13;75.68
26083;BME280;13848;49.018;12.078;2023-05-20T04:11:16;97747.88;;;13.22;75.58
26083;BME280;13848;49.018;12.078;2023-05-20T04:13:43;97746.00;;;13.34;75.23
26083;BME280;13848;49.018;12.078;2023-05-20T04:16:09;97736.56;;;13.37;75.10
26083;BME280;13848;49.018;12.078;2023-05-20T04:18:35;97736.56;;;13.37;74.89
26083;BME280;13848;49.018;12.078;2023-05-20T04:21:01;97735.16;;;13.11;76.20
26083;BME280;13848;49.018;12.078;2023-05-20T04:23:27;97743.31;;;13.22;75.62
26083;BME280;13848;49.018;12.078;2023-05-20T04:25:53;97746.94;;;13.40;75.19
26083;BME280;13848;49.018;12.078;2023-05-20T04:28:19;97750.06;;;13.48;75.03
26083;BME280;13848;49.018;12.078;2023-05-20T04:30:46;97746.31;;;13.49;74.96
26083;BME280;13848;49.018;12.078;2023-05-20T04:33:12;97743.97;;;13.41;75.45
26083;BME280;13848;49.018;12.078;2023-05-20T04:35:38;97743.84;;;13.48;75.28
26083;BME280;13848;49.018;12.078;2023-05-20T04:38:04;97755.38;;;13.43;75.24
26083;BME280;13848;49.018;12.078;2023-05-20T04:40:30;97750.06;;;13.48;75.32
26083;BME280;13848;49.018;12.078;2023-05-20T04:42:58;97748.75;;;13.51;75.54
26083;BME280;13848;49.018;12.078;2023-05-20T04:45:24;97740.19;;;13.42;76.04
26083;BME280;13848;49.018;12.078;2023-05-20T04:47:51;97736.41;;;13.43;75.75
26083;BME280;13848;49.018;12.078;2023-05-20T04:50:17;97734.91;;;13.36;75.73
26083;BME280;13848;49.018;12.078;2023-05-20T04:52:43;97739.84;;;13.39;75.91
26083;BME280;13848;49.018;12.078;2023-05-20T04:55:09;97736.41;;;13.43;75.90
26083;BME280;13848;49.018;12.078;2023-05-20T04:57:35;97735.13;;;13.46;75.80
26083;BME280;13848;49.018;12.078;2023-05-20T05:00:01;97732.31;;;13.41;76.38
26083;BME280;13848;49.018;12.078;2023-05-20T05:02:27;97730.72;;;13.56;75.98
26083;BME280;13848;49.018;12.078;2023-05-20T05:04:54;97730.13;;;13.66;75.79
26083;BME280;13848;49.018;12.078;2023-05-20T05:07:20;97730.94;;;13.67;75.92
26083;BME280;13848;49.018;12.078;2023-05-20T05:09:46;97738.72;;;13.75;75.83
26083;BME280;13848;49.018;12.078;2023-05-20T05:12:12;97736.78;;;13.87;75.26
26083;BME280;13848;49.018;12.078;2023-05-20T05:14:38;97740.94;;;14.06;75.00
26083;BME280;13848;49.018;12.078;2023-05-20T05:17:04;97743.75;;;14.11;74.69
26083;BME280;13848;49.018;12.078;2023-05-20T05:19:30;97738.34;;;14.28;74.16
26083;BME280;13848;49.018;12.078;2023-05-20T05:21:57;97739.00;;;14.19;74.45
26083;BME280;13848;49.018;12.078;2023-05-20T05:24:23;97734.75;;;14.40;74.29
26083;BME280;13848;49.018;12.078;2023-05-20T05:26:52;97738.75;;;14.37;74.09
26083;BME280;13848;49.018;12.078;2023-05-20T05:29:18;97740.28;;;14.45;73.94
26083;BME280;13848;49.018;12.078;2023-05-20T05:31:44;97733.34;;;14.37;73.58
26083;BME280;13848;49.018;12.078;2023-05-20T05:34:10;97725.19;;;14.37;74.04
26083;BME280;13848;49.018;12.078;2023-05-20T05:36:38;97730.06;;;14.35;73.79
26083;BME280;13848;49.018;12.078;2023-05-20T05:39:06;97725.03;;;14.10;74.54
26083;BME280;13848;49.018;12.078;2023-05-20T05:41:32;97724.31;;;14.03;75.04
26083;BME280;13848;49.018;12.078;2023-05-20T05:43:58;97724.66;;;14.06;75.08
26083;BME280;13848;49.018;12.078;2023-05-20T05:46:24;97727.34;;;14.35;74.60
26083;BME280;13848;49.018;12.078;2023-05-20T05:48:50;97723.56;;;14.36;74.01
26083;BME280;13848;49.018;12.078;2023-05-20T05:51:16;97720.06;;;14.52;73.99
26083;BME280;13848;49.018;12.078;2023-05-20T05:53:42;97720.66;;;14.54;74.09
26083;BME280;13848;49.018;12.078;2023-05-20T05:56:09;97713.91;;;14.74;73.67
26083;BME280;13848;49.018;12.078;2023-05-20T05:58:36;97711.59;;;14.82;73.35
26083;BME280;13848;49.018;12.078;2023-05-20T06:01:03;97719.47;;;15.01;72.60
26083;BME280;13848;49.018;12.078;2023-05-20T06:03:29;97714.03;;;15.01;72.96
26083;BME280;13848;49.018;12.078;2023-05-20T06:05:55;97711.28;;;14.79;72.25
26083;BME280;13848;49.018;12.078;2023-05-20T06:08:20;97712.50;;;14.88;72.11
26083;BME280;13848;49.018;12.078;2023-05-20T06:10:47;97701.13;;;15.08;72.18
26083;BME280;13848;49.018;12.078;2023-05-20T06:13:14;97707.66;;;15.29;71.42
26083;BME280;13848;49.018;12.078;2023-05-20T06:15:40;97711.66;;;15.43;71.34
26083;BME280;13848;49.018;12.078;2023-05-20T06:18:06;97704.81;;;15.40;71.83
26083;BME280;13848;49.018;12.078;2023-05-20T06:20:32;97713.53;;;15.42;70.16
26083;BME280;13848;49.018;12.078;2023-05-20T06:22:58;97712.84;;;15.52;70.62
26083;BME280;13848;49.018;12.078;2023-05-20T06:25:24;97699.34;;;15.79;70.78
26083;BME280;13848;49.018;12.078;2023-05-20T06:27:50;97705.25;;;15.98;70.17
26083;BME280;13848;49.018;12.078;2023-05-20T06:30:17;97704.06;;;15.89;69.76
26083;BME280;13848;49.018;12.078;2023-05-20T06:32:44;97698.72;;;15.99;69.61
26083;BME280;13848;49.018;12.078;2023-05-20T06:35:11;97696.88;;;16.05;69.48
26083;BME280;13848;49.018;12.078;2023-05-20T06:37:37;97702.94;;;16.12;68.66
26083;BME280;13848;49.018;12.078;2023-05-20T06:40:04;97695.25;;;16.04;68.62
26083;BME280;13848;49.018;12.078;2023-05-20T06:42:30;97692.41;;;16.20;68.33
26083;BME280;13848;49.018;12.078;2023-05-20T06:44:56;97697.47;;;16.39;68.34
26083;BME280;13848;49.018;12.078;2023-05-20T06:47:23;97704.97;;;16.54;68.49
26083;BME280;13848;49.018;12.078;2023-05-20T06:49:49;97697.31;;;16.83;68.12
26083;BME280;13848;49.018;12.078;2023-05-20T06:52:15;97699.81;;;16.57;65.56
26083;BME280;13848;49.018;12.078;2023-05-20T06:54:41;97694.44;;;16.67;66.57
26083;BME280;13848;49.018;12.078;2023-05-20T06:57:07;97690.78;;;16.84;66.84
26083;BME280;13848;49.018;12.078;2023-05-20T06:59:33;97693.63;;;17.04;66.54
26083;BME280;13848;49.018;12.078;2023-05-20T07:01:59;97691.56;;;17.16;65.83
26083;BME280;13848;49.018;12.078;2023-05-20T07:04:27;97695.09;;;17.22;65.43
26083;BME280;13848;49.018;12.078;2023-05-20T07:06:52;97694.38;;;17.37;64.99
26083;BME280;13848;49.018;12.078;2023-05-20T07:09:19;97691.69;;;17.47;64.38
26083;BME280;13848;49.018;12.078;2023-05-20T07:11:45;97696.94;;;17.64;64.15
26083;BME280;13848;49.018;12.078;2023-05-20T07:14:10;97686.94;;;17.74;63.37
26083;BME280;13848;49.018;12.078;2023-05-20T07:16:36;97686.69;;;17.81;64.20
26083;BME280;13848;49.018;12.078;2023-05-20T07:19:02;97686.31;;;17.67;62.22
26083;BME280;13848;49.018;12.078;2023-05-20T07:21:30;97694.50;;;17.67;63.00
26083;BME280;13848;49.018;12.078;2023-05-20T07:23:56;97684.28;;;18.00;63.72
26083;BME280;13848;49.018;12.078;2023-05-20T07:26:22;97686.50;;;18.28;62.90
26083;BME280;13848;49.018;12.078;2023-05-20T07:28:48;97680.22;;;18.53;62.98
26083;BME280;13848;49.018;12.078;2023-05-20T07:31:14;97682.69;;;18.40;61.59
26083;BME280;13848;49.018;12.078;2023-05-20T07:33:39;97681.09;;;18.69;60.89
26083;BME280;13848;49.018;12.078;2023-05-20T07:36:05;97664.94;;;18.83;61.26
26083;BME280;13848;49.018;12.078;2023-05-20T07:38:33;97676.69;;;18.78;58.72
26083;BME280;13848;49.018;12.078;2023-05-20T07:40:58;97677.22;;;18.09;56.96
26083;BME280;13848;49.018;12.078;2023-05-20T07:43:24;97673.63;;;17.93;56.11
26083;BME280;13848;49.018;12.078;2023-05-20T07:45:50;97674.47;;;18.09;58.35
26083;BME280;13848;49.018;12.078;2023-05-20T07:48:16;97659.47;;;18.32;56.52
26083;BME280;13848;49.018;12.078;2023-05-20T07:50:43;97671.22;;;18.43;55.54
26083;BME280;13848;49.018;12.078;2023-05-20T07:53:09;97667.69;;;18.57;56.22
26083;BME280;13848;49.018;12.078;2023-05-20T07:55:36;97655.69;;;18.79;54.71
26083;BME280;13848;49.018;12.078;2023-05-20T07:58:02;97664.13;;;18.98;56.17
26083;BME280;13848;49.018;12.078;2023-05-20T08:00:28;97658.66;;;18.87;55.15
26083;BME280;13848;49.018;12.078;2023-05-20T08:02:54;97651.03;;;18.84;54.19
26083;BME280;13848;49.018;12.078;2023-05-20T08:05:20;97654.81;;;19.04;54.57
26083;BME280;13848;49.018;12.078;2023-05-20T08:07:46;97645.97;;;19.32;54.02
26083;BME280;13848;49.018;12.078;2023-05-20T08:10:11;97645.97;;;19.32;54.09
26083;BME280;13848;49.018;12.078;2023-05-20T08:12:39;97646.69;;;19.63;54.34
26083;BME280;13848;49.018;12.078;2023-05-20T08:15:06;97652.25;;;19.33;51.94
26083;BME280;13848;49.018;12.078;2023-05-20T08:17:32;97655.53;;;19.35;51.95
26083;BME280;13848;49.018;12.078;2023-05-20T08:19:58;97643.72;;;19.45;52.44
26083;BME280;13848;49.018;12.078;2023-05-20T08:22:24;97646.16;;;19.56;51.60
26083;BME280;13848;49.018;12.078;2023-05-20T08:24:50;97649.09;;;19.75;51.64
26083;BME280;13848;49.018;12.078;2023-05-20T08:27:16;97639.28;;;19.69;51.55
26083;BME280;13848;49.018;12.078;2023-05-20T08:29:44;97644.06;;;19.92;52.01
26083;BME280;13848;49.018;12.078;2023-05-20T08:32:10;97647.47;;;20.18;52.04
26083;BME280;13848;49.018;12.078;2023-05-20T08:34:36;97649.84;;;20.30;51.70
26083;BME280;13848;49.018;12.078;2023-05-20T08:37:02;97641.47;;;20.11;50.73
26083;BME280;13848;49.018;12.078;2023-05-20T08:39:28;97643.34;;;20.16;50.86
26083;BME280;13848;49.018;12.078;2023-05-20T08:41:54;97638.66;;;20.22;51.50
26083;BME280;13848;49.018;12.078;2023-05-20T08:44:20;97642.34;;;20.07;49.32
26083;BME280;13848;49.018;12.078;2023-05-20T08:46:49;97636.53;;;19.69;51.25
26083;BME280;13848;49.018;12.078;2023-05-20T08:49:15;97648.72;;;20.31;51.45
26083;BME280;13848;49.018;12.078;2023-05-20T08:51:41;97655.44;;;20.54;49.61
26083;BME280;13848;49.018;12.078;2023-05-20T08:54:08;97638.59;;;19.92;50.10
26083;BME280;13848;49.018;12.078;2023-05-20T08:56:34;97647.13;;;20.25;49.80
26083;BME280;13848;49.018;12.078;2023-05-20T08:59:02;97639.34;;;20.42;49.20
26083;BME280;13848;49.018;12.078;2023-05-20T09:03:55;97642.41;;;20.70;50.07
26083;BME280;13848;49.018;12.078;2023-05-20T09:06:21;97636.28;;;20.49;48.73
26083;BME280;13848;49.018;12.078;2023-05-20T09:08:48;97636.03;;;20.45;50.12
26083;BME280;13848;49.018;12.078;2023-05-20T09:11:13;97634.66;;;20.48;50.39
26083;BME280;13848;49.018;12.078;2023-05-20T09:13:39;97628.22;;;20.63;49.74
26083;BME280;13848;49.018;12.078;2023-05-20T09:16:06;97633.31;;;20.75;49.67
26083;BME280;13848;49.018;12.078;2023-05-20T09:18:31;97632.19;;;21.05;49.23
26083;BME280;13848;49.018;12.078;2023-05-20T09:21:03;97627.75;;;21.09;48.61
26083;BME280;13848;49.018;12.078;2023-05-20T09:23:29;97631.25;;;21.14;48.65
26083;BME280;13848;49.018;12.078;2023-05-20T09:25:55;97637.28;;;21.16;48.21
26083;BME280;13848;49.018;12.078;2023-05-20T09:28:22;97621.69;;;21.12;49.17
26083;BME280;13848;49.018;12.078;2023-05-20T09:30:48;97618.56;;;20.99;49.38
26083;BME280;13848;49.018;12.078;2023-05-20T09:33:14;97612.75;;;21.30;49.66
26083;BME280;13848;49.018;12.078;2023-05-20T09:35:40;97620.13;;;21.72;48.86
26083;BME280;13848;49.018;12.078;2023-05-20T09:38:08;97617.50;;;22.05;48.60
26083;BME280;13848;49.018;12.078;2023-05-20T09:40:35;97622.16;;;22.04;47.61
26083;BME280;13848;49.018;12.078;2023-05-20T09:43:02;97624.38;;;22.02;46.63
26083;BME280;13848;49.018;12.078;2023-05-20T09:45:28;97618.38;;;22.00;47.51
26083;BME280;13848;49.018;12.078;2023-05-20T09:47:55;97595.66;;;21.95;47.16
26083;BME280;13848;49.018;12.078;2023-05-20T09:50:22;97604.06;;;22.03;47.87
26083;BME280;13848;49.018;12.078;2023-05-20T09:52:50;97601.31;;;22.03;48.02
26083;BME280;13848;49.018;12.078;2023-05-20T09:55:18;97602.13;;;22.23;45.58
26083;BME280;13848;49.018;12.078;2023-05-20T09:57:45;97603.59;;;22.34;47.54
26083;BME280;13848;49.018;12.078;2023-05-20T10:00:11;97598.94;;;22.48;48.08
26083;BME280;13848;49.018;12.078;2023-05-20T10:02:41;97591.63;;;22.90;48.53
26083;BME280;13848;49.018;12.078;2023-05-20T10:05:13;97587.19;;;22.62;44.99
26083;BME280;13848;49.018;12.078;2023-05-20T10:10:51;97585.84;;;22.26;47.26
26083;BME280;13848;49.018;12.078;2023-05-20T10:13:33;97597.72;;;22.03;45.07
26083;BME280;13848;49.018;12.078;2023-05-20T10:16:11;97578.16;;;21.91;45.79
26083;BME280;13848;49.018;12.078;2023-05-20T10:18:49;97588.47;;;21.80;44.87
26083;BME280;13848;49.018;12.078;2023-05-20T10:21:20;97578.72;;;21.50;45.18
26083;BME280;13848;49.018;12.078;2023-05-20T10:23:47;97586.38;;;21.53;45.19
26083;BME280;13848;49.018;12.078;2023-05-20T10:26:14;97582.75;;;21.58;44.14
26083;BME280;13848;49.018;12.078;2023-05-20T10:28:40;97602.66;;;21.87;43.58
26083;BME280;13848;49.018;12.078;2023-05-20T10:31:14;97579.56;;;21.88;43.89
26083;BME280;13848;49.018;12.078;2023-05-20T10:33:41;97580.75;;;21.82;44.14
26083;BME280;13848;49.018;12.078;2023-05-20T10:36:07;97583.59;;;21.77;42.63
26083;BME280;13848;49.018;12.078;2023-05-20T10:38:33;97588.94;;;21.87;42.83
26083;BME280;13848;49.018;12.078;2023-05-20T10:41:07;97571.56;;;22.11;42.93
26083;BME280;13848;49.018;12.078;2023-05-20T10:43:34;97555.19;;;22.38;42.94
26083;BME280;13848;49.018;12.078;2023-05-20T10:46:00;97568.13;;;22.19;42.26
26083;BME280;13848;49.018;12.078;2023-05-20T10:48:28;97579.03;;;22.05;43.65
26083;BME280;13848;49.018;12.078;2023-05-20T10:50:55;97568.59;;;21.88;41.62
26083;BME280;13848;49.018;12.078;2023-05-20T10:53:22;97576.66;;;21.79;42.94
26083;BME280;13848;49.018;12.078;2023-05-20T10:55:50;97570.38;;;21.79;43.02
26083;BME280;13848;49.018;12.078;2023-05-20T10:58:16;97562.19;;;21.74;43.01
26083;BME280;13848;49.018;12.078;2023-05-20T11:00:44;97556.34;;;21.99;43.02
26083;BME280;13848;49.018;12.078;2023-05-20T11:03:12;97560.94;;;22.23;43.31
26083;BME280;13848;49.018;12.078;2023-05-20T11:05:38;97552.06;;;22.26;42.65
26083;BME280;13848;49.018;12.078;2023-05-20T11:08:06;97549.13;;;22.22;42.81
26083;BME280;13848;49.018;12.078;2023-05-20T11:10:32;97545.97;;;22.15;43.54
26083;BME280;13848;49.018;12.078;2023-05-20T11:13:00;97547.59;;;22.16;43.17
26083;BME280;13848;49.018;12.078;2023-05-20T11:15:26;97550.44;;;22.25;43.17
26083;BME280;13848;49.018;12.078;2023-05-20T11:17:55;97548.19;;;22.13;42.75
26083;BME280;13848;49.018;12.078;2023-05-20T11:20:21;97532.66;;;22.03;43.28
26083;BME280;13848;49.018;12.078;2023-05-20T11:22:48;97533.97;;;22.25;42.84
26083;BME280;13848;49.018;12.078;2023-05-20T11:25:15;97526.44;;;22.17;41.70
26083;BME280;13848;49.018;12.078;2023-05-20T11:27:42;97528.41;;;22.30;42.68
26083;BME280;13848;49.018;12.078;2023-05-20T11:30:09;97535.41;;;22.22;41.43
26083;BME280;13848;49.018;12.078;2023-05-20T11:32:35;97537.25;;;22.27;40.51
26083;BME280;13848;49.018;12.078;2023-05-20T11:35:04;97540.66;;;22.19;39.84
26083;BME280;13848;49.018;12.078;2023-05-20T11:37:30;97546.59;;;22.26;40.22
26083;BME280;13848;49.018;12.078;2023-05-20T11:40:03;97544.97;;;22.25;40.69
26083;BME280;13848;49.018;12.078;2023-05-20T11:42:29;97544.53;;;22.18;40.41
26083;BME280;13848;49.018;12.078;2023-05-20T11:44:58;97535.47;;;22.64;41.36
26083;BME280;13848;49.018;12.078;2023-05-20T11:47:24;97540.34;;;22.67;39.78
26083;BME280;13848;49.018;12.078;2023-05-20T11:49:50;97533.75;;;22.81;40.64
26083;BME280;13848;49.018;12.078;2023-05-20T11:52:18;97532.69;;;22.96;39.98
26083;BME280;13848;49.018;12.078;2023-05-20T11:54:43;97539.59;;;22.94;39.63
26083;BME280;13848;49.018;12.078;2023-05-20T11:57:10;97537.91;;;22.51;39.78
26083;BME280;13848;49.018;12.078;2023-05-20T11:59:36;97521.19;;;23.08;39.12
26083;BME280;13848;49.018;12.078;2023-05-20T12:02:02;97533.69;;;23.00;39.34
26083;BME280;13848;49.018;12.078;2023-05-20T12:04:28;97527.44;;;23.36;39.44
26083;BME280;13848;49.018;12.078;2023-05-20T12:06:53;97525.34;;;23.05;39.10
26083;BME280;13848;49.018;12.078;2023-05-20T12:09:21;97520.63;;;22.65;39.46
26083;BME280;13848;49.018;12.078;2023-05-20T12:11:47;97520.84;;;22.82;39.93
26083;BME280;13848;49.018;12.078;2023-05-20T12:14:13;97525.97;;;22.42;40.36
26083;BME280;13848;49.018;12.078;2023-05-20T12:16:39;97519.34;;;22.43;40.94
26083;BME280;13848;49.018;12.078;2023-05-20T12:19:04;97528.47;;;22.25;40.72
26083;BME280;13848;49.018;12.078;2023-05-20T12:21:31;97530.72;;;22.23;41.24
26083;BME280;13848;49.018;12.078;2023-05-20T12:23:57;97529.25;;;22.12;40.52
26083;BME280;13848;49.018;12.078;2023-05-20T12:26:26;97518.69;;;22.19;41.23
26083;BME280;13848;49.018;12.078;2023-05-20T12:28:52;97528.88;;;22.18;40.81
26083;BME280;13848;49.018;12.078;2023-05-20T12:31:18;97532.50;;;22.14;41.23
26083;BME280;13848;49.018;12.078;2023-05-20T12:33:44;97514.41;;;22.13;41.67
26083;BME280;13848;49.018;12.078;2023-05-20T12:36:10;97518.28;;;22.12;40.34
26083;BME280;13848;49.018;12.078;2023-05-20T12:38:37;97513.22;;;22.19;40.54
26083;BME280;13848;49.018;12.078;2023-05-20T12:41:02;97515.47;;;22.30;40.54
26083;BME280;13848;49.018;12.078;2023-05-20T12:43:31;97523.31;;;22.04;40.12
26083;BME280;13848;49.018;12.078;2023-05-20T12:45:57;97520.56;;;22.04;40.54
26083;BME280;13848;49.018;12.078;2023-05-20T12:48:23;97514.63;;;22.16;40.82
26083;BME280;13848;49.018;12.078;2023-05-20T12:50:49;97500.44;;;22.28;40.58
26083;BME280;13848;49.018;12.078;2023-05-20T12:53:15;97503.34;;;22.18;41.09